Meath Environmental Platform

Observations for Trim Market St

Time AQI Temp °C Hum % Pres Pa CO μg/m³ H₂S μg/m³ NO μg/m³ NO₂ μg/m³ O₃ μg/m³ SO₂ μg/m³ PM1 μg/m³ PM2.5 μg/m³ PM10 μg/m³
Sunday 23 August 2026
09:28 2 17.8 59 57,692 0.36 0 2.86 10.27 40.48 0 1.43 2.56 3.39
09:27 2 17.8 59 57,712 0.4 0 2.26 14.12 38.17 0 0 2.55 3.39
09:25 2 17.7 60 57,708 0.35 0 1.27 9.25 42.59 0 0.71 2.54 3.4
09:23 2 17.6 60 57,699 0.36 0 1.28 7.51 47.21 0 0 3.03 4.09
09:22 2 17.6 60 57,694 0.46 0 1.28 8.97 43.77 0 0 2.52 3.41
09:21 2 17.5 60 57,688 0.34 0 1.33 7.04 52.37 0 0 2.01 2.74
09:20 2 17.5 60 57,679 0.36 0 1.35 6.65 50.95 0 0 2.5 3.43
09:19 2 17.4 61 57,668 0.35 0 1.38 6.56 51.21 0 0.71 2.49 4.12
09:18 2 17.4 61 57,658 0.35 0 1.51 7.03 51.64 0 0 2.49 3.44
09:16 2 17.3 61 57,640 0.37 0 1.44 7.11 54.39 0 0 2.47 4.13
09:10 2 17 62 57,603 0.33 0 1.47 7.11 47.67 0 0 2.44 3.48
09:08 2 16.9 62 57,592 0.34 0 1.54 7.44 46.31 0 1.43 3.43 4.83
09:05 2 16.8 62 57,581 0.36 0 1.47 8.05 43.93 0 0 2.92 4.17
09:03 2 16.8 62 57,577 0.35 0 1.63 7.88 42.38 0 0 2.92 4.17
08:58 2 16.7 63 57,551 0.35 0 2.01 7.24 49.67 0 0.71 2.4 4.18
08:57 2 16.6 63 57,545 0.35 0 2.05 7.32 49.7 0 0 2.4 3.52
08:56 2 16.6 63 57,542 0.33 0 1.76 7.42 49.65 0 0 2.4 4.18
08:55 2 16.6 63 57,537 0.35 0 1.93 7.66 43.36 0 0.71 2.89 4.19
08:54 2 16.5 63 57,532 0.37 0 2.43 9.3 41.24 0 0.71 2.39 3.52
08:53 2 16.5 63 57,529 0.41 0 2.72 8.68 38.23 0 0.71 2.88 4.19